createdAt,value
2022-12-07T00:01:44.075Z,1.21
2022-12-07T00:10:07.717Z,1.23
2022-12-07T00:18:30.908Z,1.17
2022-12-07T00:26:53.835Z,1.31
2022-12-07T00:35:18.070Z,1.44
2022-12-07T00:43:42.450Z,1.44
2022-12-07T00:52:05.498Z,1.37
2022-12-07T01:00:28.582Z,1.35
2022-12-07T01:08:51.579Z,1.33
2022-12-07T01:17:14.559Z,1.30
2022-12-07T01:25:37.513Z,1.28
2022-12-07T01:34:01.767Z,1.23
2022-12-07T01:42:24.632Z,1.13
2022-12-07T01:50:51.463Z,1.06
2022-12-07T01:59:14.715Z,1.03
2022-12-07T02:07:39.539Z,1.03
2022-12-07T02:16:14.782Z,0.92
2022-12-07T02:24:55.756Z,0.88
2022-12-07T02:33:35.186Z,0.71
2022-12-07T02:42:03.703Z,0.59
2022-12-07T02:50:27.710Z,0.50
2022-12-07T02:59:16.559Z,0.41
2022-12-07T03:07:58.323Z,0.36
2022-12-07T03:16:44.661Z,0.29
2022-12-07T03:25:11.753Z,0.28
2022-12-07T03:33:50.471Z,0.28
2022-12-07T03:42:13.871Z,0.25
2022-12-07T03:50:50.071Z,0.26
2022-12-07T03:59:18.184Z,0.24
2022-12-07T04:07:42.427Z,0.23
2022-12-07T04:16:05.400Z,0.25
2022-12-07T04:24:29.070Z,0.20
2022-12-07T04:32:52.628Z,0.20
2022-12-07T04:41:16.178Z,0.23
2022-12-07T04:49:39.184Z,0.17
2022-12-07T04:58:02.113Z,0.22
2022-12-07T05:06:25.111Z,0.31
2022-12-07T05:14:47.927Z,0.25
2022-12-07T05:23:11.823Z,0.24
2022-12-07T05:31:36.149Z,0.19
2022-12-07T05:39:59.173Z,0.20
2022-12-07T05:48:22.315Z,0.32
2022-12-07T05:56:45.175Z,0.27
2022-12-07T06:05:08.444Z,0.30
2022-12-07T06:13:31.320Z,0.26
2022-12-07T06:21:54.824Z,0.30
2022-12-07T06:30:17.705Z,0.26
2022-12-07T06:38:41.221Z,0.12
2022-12-07T06:47:38.939Z,0.08
2022-12-07T06:55:48.531Z,0.01
2022-12-07T07:04:11.376Z,-0.07
2022-12-07T07:12:34.214Z,-0.07
2022-12-07T07:20:57.226Z,-0.11
2022-12-07T07:29:20.238Z,-0.07
2022-12-07T07:37:43.571Z,-0.09
2022-12-07T07:46:06.610Z,-0.05
2022-12-07T07:54:29.921Z,-0.06
2022-12-07T08:02:52.883Z,-0.03
2022-12-07T08:11:15.805Z,0.05
2022-12-07T08:19:39.269Z,-0.04
2022-12-07T08:28:02.499Z,0.01
2022-12-07T08:36:26.648Z,0.02
2022-12-07T08:44:49.900Z,-0.00
2022-12-07T08:53:12.850Z,0.01
2022-12-07T09:01:35.815Z,-0.02
2022-12-07T09:09:59.010Z,0.09
2022-12-07T09:18:22.178Z,0.16
2022-12-07T09:26:45.514Z,0.23
2022-12-07T09:35:08.706Z,0.25
2022-12-07T09:43:31.550Z,0.30
2022-12-07T09:52:22.036Z,0.37
2022-12-07T10:00:45.987Z,0.48
2022-12-07T10:09:13.956Z,0.60
2022-12-07T10:17:44.582Z,0.70
2022-12-07T10:26:29.660Z,0.85
2022-12-07T10:35:11.805Z,1.04
2022-12-07T10:43:35.170Z,1.22
2022-12-07T10:52:16.384Z,1.45
2022-12-07T11:00:52.282Z,1.44
2022-12-07T11:10:07.303Z,1.36
2022-12-07T11:18:26.210Z,1.35
2022-12-07T11:27:01.210Z,1.36
2022-12-07T11:35:46.094Z,1.28
2022-12-07T11:44:33.281Z,1.22
2022-12-07T11:53:01.847Z,1.17
2022-12-07T12:01:56.872Z,1.23
2022-12-07T12:10:29.185Z,1.22
2022-12-07T12:19:12.876Z,1.26
2022-12-07T12:27:40.180Z,1.32
2022-12-07T12:36:25.289Z,1.33
2022-12-07T12:45:18.331Z,1.31
2022-12-07T12:53:42.247Z,1.19
2022-12-07T13:02:16.353Z,1.15
2022-12-07T13:10:43.081Z,1.11
2022-12-07T13:19:44.059Z,1.07
2022-12-07T13:28:19.057Z,1.00
2022-12-07T13:36:46.119Z,0.90
2022-12-07T13:45:45.093Z,0.89
2022-12-07T13:54:13.657Z,0.87
2022-12-07T14:02:40.017Z,0.94
2022-12-07T14:11:15.573Z,0.91
2022-12-07T14:19:57.130Z,0.85
2022-12-07T14:28:35.590Z,0.88
2022-12-07T14:36:58.557Z,0.86
2022-12-07T14:45:23.843Z,0.85
2022-12-07T14:53:57.029Z,0.79
2022-12-07T15:02:20.359Z,0.75
2022-12-07T15:10:43.625Z,0.70
2022-12-07T15:19:29.015Z,0.65
2022-12-07T15:27:54.141Z,0.60
2022-12-07T15:36:29.635Z,0.54
2022-12-07T15:45:05.449Z,0.47
2022-12-07T15:53:29.122Z,0.50
2022-12-07T16:01:52.161Z,0.48
2022-12-07T16:10:15.280Z,0.43
2022-12-07T16:18:38.725Z,0.48
2022-12-07T16:27:01.864Z,0.55
2022-12-07T16:35:29.469Z,0.51
2022-12-07T16:43:59.622Z,0.55
2022-12-07T16:52:41.487Z,0.57
2022-12-07T17:01:19.182Z,0.51
2022-12-07T17:09:44.207Z,0.52
2022-12-07T17:18:43.653Z,0.36
2022-12-07T17:27:14.536Z,0.25
2022-12-07T17:35:40.940Z,0.16
2022-12-07T17:44:06.786Z,0.12
2022-12-07T17:52:49.142Z,0.25
2022-12-07T18:01:13.283Z,0.33
2022-12-07T18:09:37.480Z,0.38
2022-12-07T18:18:01.476Z,0.41
2022-12-07T18:26:26.395Z,0.46
2022-12-07T18:34:49.511Z,0.47
2022-12-07T18:43:13.120Z,0.54
2022-12-07T18:51:36.115Z,0.57
2022-12-07T18:59:58.958Z,0.64
2022-12-07T19:08:21.936Z,0.65
2022-12-07T19:16:46.389Z,0.64
2022-12-07T19:25:10.271Z,0.68
2022-12-07T19:33:33.703Z,0.75
2022-12-07T19:41:57.191Z,0.80
2022-12-07T19:50:20.407Z,0.76
2022-12-07T19:58:43.617Z,0.69
2022-12-07T20:07:06.598Z,0.65
2022-12-07T20:15:31.678Z,0.65
